Longboat Key, Florida
Current Conditions -  °F | °C
As of 12:53 PM on Thursday 23 Oct 2014 (Local Time) from KSRQ Reporting Station
Clear Clear  
Wind Chill: 81°   Ceiling: Unl
Heat Index: 82°   Visibility: 10mi
Dew Point: 62°   Wind: 13mph
Humidity: 52%   Direction: 70°ENE
Pressure: 29.95"   Gusts: NA
Location:  27.37°N, 82.62°W
Report Text: KSRQ 231653Z AUTO 07011KT 10SM CLR 27/17 A2995 RMK AO2 SLP142 T02720167
Loading
Personal Weather Stations






























Interactive Weather Map
Tropical Storm Tracking
New forecast layout! Learn more

10-Day Weather Forecast

Advertisements
Track Severe Weather on mobile